< < Back
Terminal Aerodrome Forecast


Current Version              Previous Versions:   1  2  3  4  5  6  7  8  9  

Terminal Aerodrome Forecast

274
FTUS42 KGSP 251450 AAA
TAFCLT
TAF AMD
KCLT 251450Z 2515/2612 20003KT P6SM FEW250
     FM251700 23006KT P6SM SCT060 BKN250
     FM260000 20003KT P6SM SCT060 BKN120
     FM260900 18003KT P6SM BKN060=



Latest METAR

994
SAUS70 KWBC 260000 RRI
MTRCLT
METAR KCLT 252352Z 22004KT 10SM SCT250 26/14 A3017 RMK AO2 SLP208
T02610144 10294 20261 55004


USA.gov is the U.S. government's official web portal to all federal, state and local government web resources and services.